Castle Airport Merced US
ICAO: KMER
IATA: MER
Category: Medium
Scheduled Services: No

Elevation: 191 ft
TransAlt. 18000 ft.

Airport Communications:
NORCAL APP/DEP:120.95
AWO 3:124.475
CTAF/UNICOM:123.075

KMER Zoom In..

Runways:

(A) RW 13 length 11802 ft width 150 ft
---- / hdg 126

(B) RW 31 length 11802 ft width 150 ft
ILS 109.50 / hdg 306

Location; KMER
Day. 22 / Time. 01.45 Zulu
* Altimeter: 29.77
* Temperature: 27° c. 80.6°f.
* Wind from: VRB° Speed 04 kn.
Dewpoint: 12° c.
Visibility: 10 Statute Miles.
Clouds: Clear (manual report).

KMER 220145Z VRB04KT 10SM SKC 27/12 A2977


Wind From VRB°
Speed 04 kn.

 
 
jpsmedia.com for Web Design SOUNDCLOUD worldairports.se 2018   terms of use